CheckWX is a tool to help pilots better visualize weather data.  It is not intended as a substitute for an official pre-flight weather briefing.

16:22:03 UTC

SVMC TAF
La Chinita International Airport
Maracaibo, Venezuela
TAF SVMC 181000Z 1812/1912 21008KT 9999 SCT016 BKN100 TX30/1812Z TN25//1706Z BECMG 1812/1816 03004KT 9999 SCT016 BKN100

Mar-18@
12:00 UTC

Mar-18 @ 12:00 UTC

Mar-19@
12:00 UTC

Mar-19 @ 12:00 UTC

TAF SVMC 181000Z 1812/1912 21008KT 9999 SCT016 BKN100 TX30/1812Z TN25//1706Z
Wind
  • 210° at 8 KTS
Cloud Levels
  • Scattered at 1,600' AGL
  • Broken at 10,000' AGL

Mar-18@
12:00 UTC

Mar-18 @ 12:00 UTC

Mar-19@
12:00 UTC

Mar-19 @ 12:00 UTC

BECMG 1812/1816 03004KT 9999 SCT016 BKN100

Becoming

Becoming Conditions expected by Mon, Mar 18, 2019 @ 16:00 UTC

Wind
  • 030° at 4 KTS
Cloud Levels
  • Scattered at 1,600' AGL
  • Broken at 10,000' AGL